createdAt,value
2022-12-22T00:04:24.959Z,34.90
2022-12-22T00:09:36.960Z,35.83
2022-12-22T00:14:48.148Z,35.00
2022-12-22T00:20:00.205Z,34.03
2022-12-22T00:25:12.506Z,35.60
2022-12-22T00:30:25.653Z,34.00
2022-12-22T00:35:40.375Z,34.33
2022-12-22T00:40:53.306Z,35.22
2022-12-22T00:46:04.403Z,34.47
2022-12-22T00:51:16.344Z,39.80
2022-12-22T00:56:29.018Z,33.80
2022-12-22T01:01:40.828Z,33.13
2022-12-22T01:06:54.198Z,28.52
2022-12-22T01:12:05.640Z,33.15
2022-12-22T01:17:17.072Z,30.15
2022-12-22T01:22:32.068Z,27.38
2022-12-22T01:27:43.751Z,29.05
2022-12-22T01:32:55.766Z,30.98
2022-12-22T01:38:08.127Z,30.52
2022-12-22T01:43:19.924Z,28.50
2022-12-22T01:48:34.091Z,32.85
2022-12-22T01:53:46.811Z,28.88
2022-12-22T01:59:03.178Z,29.48
2022-12-22T02:04:15.375Z,30.92
2022-12-22T02:09:31.497Z,29.55
2022-12-22T02:14:57.620Z,30.77
2022-12-22T02:20:42.955Z,29.85
2022-12-22T02:26:00.452Z,28.67
2022-12-22T02:31:12.115Z,25.85
2022-12-22T02:37:10.888Z,28.55
2022-12-22T02:42:22.891Z,28.88
2022-12-22T02:47:54.567Z,30.50
2022-12-22T02:53:07.373Z,28.00
2022-12-22T02:58:19.397Z,28.52
2022-12-22T03:03:31.225Z,29.55
2022-12-22T03:08:43.501Z,28.58
2022-12-22T03:13:55.577Z,27.80
2022-12-22T03:19:07.583Z,30.20
2022-12-22T03:24:19.150Z,28.10
2022-12-22T03:29:13.985Z,29.52
2022-12-22T03:34:08.098Z,27.48
2022-12-22T03:39:01.993Z,28.52
2022-12-22T03:44:13.499Z,28.25
2022-12-22T03:49:13.161Z,27.08
2022-12-22T03:54:06.649Z,30.33
2022-12-22T03:59:01.419Z,28.92
2022-12-22T04:03:55.729Z,27.15
2022-12-22T04:08:48.363Z,28.00
2022-12-22T04:13:42.199Z,26.48
2022-12-22T04:18:35.215Z,25.55
2022-12-22T04:23:28.479Z,24.83
2022-12-22T04:28:22.462Z,27.50
2022-12-22T04:33:16.804Z,23.48
2022-12-22T04:38:10.926Z,24.25
2022-12-22T04:43:04.591Z,22.35
2022-12-22T04:47:58.912Z,23.10
2022-12-22T04:52:52.202Z,23.30
2022-12-22T04:57:46.025Z,23.25
2022-12-22T05:02:40.617Z,24.33
2022-12-22T05:07:34.483Z,23.27
2022-12-22T05:12:46.788Z,22.52
2022-12-22T05:17:40.748Z,22.50
2022-12-22T05:22:33.936Z,23.42
2022-12-22T05:27:28.040Z,23.35
2022-12-22T05:32:21.805Z,23.13
2022-12-22T05:37:15.783Z,24.25
2022-12-22T05:42:09.660Z,23.52
2022-12-22T05:47:03.234Z,21.85
2022-12-22T05:51:57.178Z,18.83
2022-12-22T05:56:50.707Z,20.35
2022-12-22T06:01:45.000Z,20.08
2022-12-22T06:06:38.580Z,18.92
2022-12-22T06:11:31.503Z,18.23
2022-12-22T06:16:24.655Z,21.00
2022-12-22T06:21:18.925Z,19.55
2022-12-22T06:26:12.292Z,21.05
2022-12-22T06:31:06.057Z,21.05
2022-12-22T06:36:00.174Z,21.08
2022-12-22T06:40:54.173Z,21.42
2022-12-22T06:45:48.423Z,22.02
2022-12-22T06:50:42.015Z,21.50
2022-12-22T06:55:35.948Z,20.75
2022-12-22T07:00:30.213Z,22.02
2022-12-22T07:05:25.515Z,22.20
2022-12-22T07:10:41.398Z,21.88
2022-12-22T07:15:42.043Z,22.10
2022-12-22T07:20:41.828Z,24.15
2022-12-22T07:25:40.641Z,24.52
2022-12-22T07:30:37.669Z,23.80
2022-12-22T07:35:37.411Z,27.33
2022-12-22T07:40:42.383Z,26.38
2022-12-22T07:45:45.847Z,29.58
2022-12-22T07:50:48.232Z,27.67
2022-12-22T07:55:43.265Z,28.23
2022-12-22T08:00:40.252Z,26.75
2022-12-22T08:05:35.924Z,28.67
2022-12-22T08:10:31.018Z,25.50
2022-12-22T08:15:25.843Z,27.00
2022-12-22T08:20:19.804Z,26.38
2022-12-22T08:25:13.704Z,24.80
2022-12-22T08:30:09.207Z,23.45
2022-12-22T08:35:03.578Z,22.80
2022-12-22T08:40:04.338Z,20.85
2022-12-22T08:44:57.708Z,21.17
2022-12-22T08:49:51.260Z,22.15
2022-12-22T08:54:44.619Z,20.05
2022-12-22T08:59:38.414Z,22.45
2022-12-22T09:04:34.268Z,23.10
2022-12-22T09:09:27.601Z,21.98
2022-12-22T09:14:21.200Z,19.70
2022-12-22T09:19:14.848Z,19.60
2022-12-22T09:24:10.134Z,19.73
2022-12-22T09:29:04.823Z,18.25
2022-12-22T09:33:59.385Z,17.45
2022-12-22T09:38:53.674Z,16.13
2022-12-22T09:43:47.293Z,16.65
2022-12-22T09:48:41.194Z,18.10
2022-12-22T09:53:34.992Z,17.05
2022-12-22T09:58:30.705Z,16.88
2022-12-22T10:03:42.126Z,15.60
2022-12-22T10:08:38.725Z,17.50
2022-12-22T10:13:32.997Z,16.13
2022-12-22T10:18:29.427Z,17.95
2022-12-22T10:23:29.076Z,16.65
2022-12-22T10:28:47.868Z,15.73
2022-12-22T10:33:46.850Z,17.38
2022-12-22T10:38:52.873Z,14.68
2022-12-22T10:43:52.685Z,15.10
2022-12-22T10:48:46.199Z,15.82
2022-12-22T10:53:56.212Z,15.32
2022-12-22T11:03:44.582Z,15.45
2022-12-22T11:08:38.072Z,14.35
2022-12-22T11:14:17.125Z,15.52
2022-12-22T11:19:16.326Z,13.27
2022-12-22T11:24:46.201Z,14.68
2022-12-22T11:30:01.710Z,14.48
2022-12-22T11:35:14.243Z,14.75
2022-12-22T11:40:33.475Z,14.82
2022-12-22T11:50:58.389Z,14.85
2022-12-22T11:56:25.632Z,15.40
2022-12-22T12:01:57.840Z,15.07
2022-12-22T12:07:02.473Z,16.75
2022-12-22T12:12:17.783Z,17.58
2022-12-22T12:17:28.669Z,17.50
2022-12-22T12:22:30.633Z,17.58
2022-12-22T12:27:51.519Z,18.27
2022-12-22T12:33:16.132Z,17.02
2022-12-22T12:39:06.415Z,17.98
2022-12-22T12:43:46.332Z,18.15
2022-12-22T12:48:40.689Z,19.63
2022-12-22T12:53:35.363Z,18.42
2022-12-22T12:58:39.950Z,18.20
2022-12-22T13:09:39.976Z,18.02
2022-12-22T13:14:54.242Z,18.48
2022-12-22T13:20:08.344Z,18.67
2022-12-22T13:25:22.717Z,17.90
2022-12-22T13:30:18.770Z,17.52
2022-12-22T13:35:32.777Z,18.02
2022-12-22T13:40:42.976Z,26.80
2022-12-22T13:46:07.544Z,19.38
2022-12-22T13:51:03.802Z,17.95
2022-12-22T13:56:00.097Z,19.08
2022-12-22T14:01:11.567Z,26.20
2022-12-22T14:06:27.177Z,19.08
2022-12-22T14:11:21.708Z,17.98
2022-12-22T14:16:16.095Z,18.65
2022-12-22T14:21:11.466Z,21.15
2022-12-22T14:26:07.428Z,20.38
2022-12-22T14:31:01.847Z,21.30
2022-12-22T14:36:18.704Z,18.85
2022-12-22T14:41:44.933Z,20.60
2022-12-22T14:46:39.354Z,21.25
2022-12-22T14:51:32.470Z,23.13
2022-12-22T14:56:27.337Z,24.40
2022-12-22T15:01:29.150Z,24.50
2022-12-22T15:06:28.189Z,25.55
2022-12-22T15:16:35.699Z,28.40
2022-12-22T15:21:29.676Z,46.67
2022-12-22T15:26:23.081Z,26.50
2022-12-22T15:31:17.449Z,26.85
2022-12-22T15:36:12.526Z,53.28
2022-12-22T15:41:06.896Z,23.95
2022-12-22T15:46:00.508Z,21.13
2022-12-22T15:50:55.357Z,22.15
2022-12-22T15:55:54.815Z,23.20
2022-12-22T16:00:48.887Z,23.90
2022-12-22T16:05:43.568Z,21.95
2022-12-22T16:10:37.174Z,21.60
2022-12-22T16:15:32.808Z,22.27
2022-12-22T16:20:26.854Z,24.10
2022-12-22T16:25:44.580Z,21.80
2022-12-22T16:30:38.821Z,21.00
2022-12-22T16:35:33.558Z,24.25
2022-12-22T16:40:28.064Z,22.88
2022-12-22T16:45:23.729Z,22.70
2022-12-22T16:50:20.175Z,23.85
2022-12-22T16:55:19.128Z,25.50
2022-12-22T17:00:32.102Z,25.17
2022-12-22T17:05:30.766Z,31.85
2022-12-22T17:10:24.891Z,32.92
2022-12-22T17:15:21.122Z,37.28
2022-12-22T17:20:20.266Z,39.17
2022-12-22T17:30:27.054Z,39.80
2022-12-22T17:35:22.361Z,37.95
2022-12-22T17:40:35.940Z,37.03
2022-12-22T17:45:49.953Z,34.83
2022-12-22T17:51:05.917Z,36.25
2022-12-22T17:56:09.428Z,38.60
2022-12-22T18:01:03.657Z,39.42
2022-12-22T18:05:57.606Z,39.95
2022-12-22T18:10:50.723Z,40.60
2022-12-22T18:15:44.372Z,41.88
2022-12-22T18:20:37.844Z,40.58
2022-12-22T18:25:32.455Z,38.55
2022-12-22T18:30:29.161Z,31.25
2022-12-22T18:35:24.847Z,35.35
2022-12-22T18:40:24.631Z,32.10
2022-12-22T18:45:23.202Z,28.63
2022-12-22T18:50:28.935Z,28.40
2022-12-22T18:55:25.616Z,30.25
2022-12-22T19:00:24.797Z,30.30
2022-12-22T19:05:20.014Z,42.63
2022-12-22T19:10:40.732Z,39.65
2022-12-22T19:15:37.420Z,39.28
2022-12-22T19:20:31.712Z,36.45
2022-12-22T19:25:29.529Z,32.47
2022-12-22T19:30:28.943Z,28.63
2022-12-22T19:35:24.340Z,30.98
2022-12-22T19:40:19.229Z,44.80
2022-12-22T19:45:21.938Z,50.60
2022-12-22T19:50:19.113Z,50.08
2022-12-22T19:55:12.492Z,47.58
2022-12-22T20:00:08.964Z,39.70
2022-12-22T20:05:14.932Z,37.92
2022-12-22T20:10:11.856Z,37.78
2022-12-22T20:15:23.532Z,39.70
2022-12-22T20:20:19.454Z,39.75
2022-12-22T20:25:18.140Z,43.63
2022-12-22T20:30:20.685Z,41.10
2022-12-22T20:35:13.588Z,39.95
2022-12-22T20:40:27.214Z,39.70
2022-12-22T20:45:24.371Z,40.20
2022-12-22T20:50:26.568Z,41.42
2022-12-22T20:55:21.520Z,42.53
2022-12-22T21:00:27.317Z,45.03
2022-12-22T21:05:21.596Z,37.80
2022-12-22T21:10:20.414Z,38.75
2022-12-22T21:15:28.554Z,35.15
2022-12-22T21:20:25.796Z,36.05
2022-12-22T21:25:19.241Z,39.42
2022-12-22T21:30:24.303Z,50.30
2022-12-22T21:35:19.968Z,45.13
2022-12-22T21:40:42.175Z,48.85
2022-12-22T21:45:42.697Z,45.17
2022-12-22T21:50:36.698Z,45.92
2022-12-22T21:55:36.856Z,38.42
2022-12-22T22:00:31.262Z,41.63
2022-12-22T22:05:59.155Z,43.42
2022-12-22T22:10:54.056Z,42.33
2022-12-22T22:15:47.766Z,41.65
2022-12-22T22:20:42.510Z,42.60
2022-12-22T22:25:36.439Z,48.03
2022-12-22T22:30:30.920Z,48.08
2022-12-22T22:35:25.925Z,45.78
2022-12-22T22:40:21.927Z,41.63
2022-12-22T22:45:24.198Z,42.70
2022-12-22T22:50:19.469Z,41.45
2022-12-22T22:55:16.563Z,42.95
2022-12-22T23:00:14.683Z,39.42
2022-12-22T23:05:08.742Z,40.08
2022-12-22T23:10:02.820Z,36.72
2022-12-22T23:14:56.202Z,38.25
2022-12-22T23:19:49.447Z,43.08
2022-12-22T23:24:43.613Z,36.47
2022-12-22T23:29:37.971Z,38.42
2022-12-22T23:34:32.415Z,41.13
2022-12-22T23:39:26.571Z,46.83
2022-12-22T23:44:20.037Z,43.40
2022-12-22T23:49:14.919Z,43.55
2022-12-22T23:54:09.071Z,42.30
2022-12-22T23:59:09.417Z,41.20
